SYRK1: Arkansas R at Syracuse, KS

                                SHEF ID:       SYRK1     ARKANSAS R AT SYRACUSE, KS
STATION TYPE:
Regulating: Stage = 10.00, Flow = 2000

PRECIP STAGE RIV-FLOW BAT-LOAD
in ft cfs volt
Ccp-Rev Ccp-Rev Ccp-Rev Ccp-Rev
(America/Chicago)
08/15 00:00 0.00 4.84 157 12.65
08/15 01:00 0.00 4.84 157 12.65
08/15 02:00 0.00 4.84 157 12.65
08/15 03:00 0.00 4.85 158 12.60
08/15 04:00 0.00 4.83 155 12.60
08/15 05:00 0.00 4.82 153 12.60
08/15 06:00 0.00 4.81 152 12.60
08/15 07:00 0.00 4.81 152 12.54
08/15 08:00 0.00 4.80 150 12.54
08/15 09:00 0.00 4.80 150 12.60
08/15 10:00 0.00 4.79 149 13.24
08/15 11:00 0.00 4.78 147 13.24
08/15 12:00 0.00 4.77 146 13.53
08/15 13:00 0.00 4.77 146 13.48
08/15 14:00 0.00 4.75 143 13.42
08/15 15:00 0.00 4.77 146 13.42
08/15 16:00 0.00 4.75 143 13.36
08/15 17:00 0.00 4.75 143 13.30
08/15 18:00 0.00 4.73 140 13.24
08/15 19:00 0.00 4.74 141 13.24
08/15 20:00 0.00 4.72 138 12.83
08/15 21:00 0.00 4.73 140 12.77
08/15 22:00 ---- ---- ---- ----
08/15 23:00 ---- ---- ---- ----
Data processed at Fri 16Aug2024 03:28 GMT

Parsing this webpage?

Checkout our new Data API! CWMSDataAPI (CDA)

Timeseries IDs (TSIDs)

TSIDs used from left to right in the data table
SYRA.Precip-Inc.Total.1Hour.1Hour.Ccp-Rev
SYRA.Stage.Inst.1Hour.0.Ccp-Rev
SYRA.Flow.Inst.1Hour.0.Ccp-Rev
SYRA.Volt-Battery Load.Inst.1Hour.0.Ccp-Rev

                            

All information presented herein is the property of the government of the United States of America and may be revised or deleted at any time without prior notice. Dissemination of this information without the expressed written consent of the Public Affairs Office, Tulsa District U.S. Army Corps of Engineers is strictly prohibited. These data are gathered electronically and, as presented, have NOT undergone any form of quality control. These data are NOT guaranteed to be valid or correct.